2.900 kWh

EHAM AMSTERDAM/SCHIPHOL NLD -3 m.
METAR EHAM 161555Z 36006KT 9999 FEW014 SCT022 BKN040 16/12 Q1020
NOSIG

EHAM AMSTERDAM/SCHIPHOL NLD -3 m.
TAF EHAM 161105Z 1612/1718 35006KT 9999 SCT018 BKN025
TEMPO 1612/1614 BKN014
BECMG 1704/1707 30010KT
BECMG 1712/1715 33013KT